sensor_id;sensor_type;location;lat;lon;timestamp;P1;durP1;ratioP1;P2;durP2;ratioP2
46731;SDS011;32477;51.474;5.696;2023-02-23T00:00:07;82.63;;;36.42;;
46731;SDS011;32477;51.474;5.696;2023-02-23T00:02:47;90.10;;;38.75;;
46731;SDS011;32477;51.474;5.696;2023-02-23T00:05:14;84.10;;;38.30;;
46731;SDS011;32477;51.474;5.696;2023-02-23T00:07:44;94.72;;;38.17;;
46731;SDS011;32477;51.474;5.696;2023-02-23T00:10:11;87.10;;;38.85;;
46731;SDS011;32477;51.474;5.696;2023-02-23T00:12:38;90.00;;;39.33;;
46731;SDS011;32477;51.474;5.696;2023-02-23T00:15:04;96.10;;;41.05;;
46731;SDS011;32477;51.474;5.696;2023-02-23T00:17:31;85.78;;;38.45;;
46731;SDS011;32477;51.474;5.696;2023-02-23T00:19:57;81.90;;;38.00;;
46731;SDS011;32477;51.474;5.696;2023-02-23T00:22:23;74.63;;;37.38;;
46731;SDS011;32477;51.474;5.696;2023-02-23T00:24:50;87.60;;;38.65;;
46731;SDS011;32477;51.474;5.696;2023-02-23T00:27:15;87.00;;;38.53;;
46731;SDS011;32477;51.474;5.696;2023-02-23T00:29:44;102.00;;;40.03;;
46731;SDS011;32477;51.474;5.696;2023-02-23T00:32:13;95.93;;;38.35;;
46731;SDS011;32477;51.474;5.696;2023-02-23T00:34:43;102.25;;;38.95;;
46731;SDS011;32477;51.474;5.696;2023-02-23T00:37:13;109.50;;;41.13;;
46731;SDS011;32477;51.474;5.696;2023-02-23T00:39:39;102.30;;;44.10;;
46731;SDS011;32477;51.474;5.696;2023-02-23T00:42:04;106.45;;;43.25;;
46731;SDS011;32477;51.474;5.696;2023-02-23T00:44:31;127.65;;;44.38;;
46731;SDS011;32477;51.474;5.696;2023-02-23T00:46:58;113.32;;;45.15;;
46731;SDS011;32477;51.474;5.696;2023-02-23T00:49:26;113.35;;;43.78;;
46731;SDS011;32477;51.474;5.696;2023-02-23T00:51:52;108.05;;;43.00;;
46731;SDS011;32477;51.474;5.696;2023-02-23T00:54:18;112.13;;;41.95;;
46731;SDS011;32477;51.474;5.696;2023-02-23T00:56:45;109.30;;;44.22;;
46731;SDS011;32477;51.474;5.696;2023-02-23T00:59:11;109.05;;;44.55;;
46731;SDS011;32477;51.474;5.696;2023-02-23T01:01:37;113.10;;;43.08;;
46731;SDS011;32477;51.474;5.696;2023-02-23T01:04:05;119.32;;;43.90;;
46731;SDS011;32477;51.474;5.696;2023-02-23T01:06:31;109.13;;;42.53;;
46731;SDS011;32477;51.474;5.696;2023-02-23T01:08:58;128.55;;;45.30;;
46731;SDS011;32477;51.474;5.696;2023-02-23T01:11:24;124.32;;;46.33;;
46731;SDS011;32477;51.474;5.696;2023-02-23T01:13:52;123.75;;;44.25;;
46731;SDS011;32477;51.474;5.696;2023-02-23T01:16:20;128.38;;;46.50;;
46731;SDS011;32477;51.474;5.696;2023-02-23T01:18:52;107.60;;;43.38;;
46731;SDS011;32477;51.474;5.696;2023-02-23T01:21:23;124.10;;;45.28;;
46731;SDS011;32477;51.474;5.696;2023-02-23T01:23:54;118.95;;;45.25;;
46731;SDS011;32477;51.474;5.696;2023-02-23T01:26:27;123.00;;;46.33;;
46731;SDS011;32477;51.474;5.696;2023-02-23T01:28:56;117.88;;;45.90;;
46731;SDS011;32477;51.474;5.696;2023-02-23T01:31:25;131.55;;;47.38;;
46731;SDS011;32477;51.474;5.696;2023-02-23T01:33:58;130.45;;;48.13;;
46731;SDS011;32477;51.474;5.696;2023-02-23T01:36:26;124.18;;;46.85;;
46731;SDS011;32477;51.474;5.696;2023-02-23T01:38:53;132.23;;;46.53;;
46731;SDS011;32477;51.474;5.696;2023-02-23T01:41:20;119.38;;;47.65;;
46731;SDS011;32477;51.474;5.696;2023-02-23T01:44:07;118.40;;;46.35;;
46731;SDS011;32477;51.474;5.696;2023-02-23T01:46:37;114.57;;;43.97;;
46731;SDS011;32477;51.474;5.696;2023-02-23T01:49:05;114.78;;;44.42;;
46731;SDS011;32477;51.474;5.696;2023-02-23T01:51:42;119.80;;;49.80;;
46731;SDS011;32477;51.474;5.696;2023-02-23T01:54:23;127.03;;;49.00;;
46731;SDS011;32477;51.474;5.696;2023-02-23T01:56:53;122.57;;;46.08;;
46731;SDS011;32477;51.474;5.696;2023-02-23T01:59:22;130.25;;;46.20;;
46731;SDS011;32477;51.474;5.696;2023-02-23T02:01:54;124.38;;;46.55;;
46731;SDS011;32477;51.474;5.696;2023-02-23T02:04:20;117.85;;;47.30;;
46731;SDS011;32477;51.474;5.696;2023-02-23T02:06:49;116.70;;;47.22;;
46731;SDS011;32477;51.474;5.696;2023-02-23T02:09:17;142.30;;;48.75;;
46731;SDS011;32477;51.474;5.696;2023-02-23T02:11:49;135.80;;;50.42;;
46731;SDS011;32477;51.474;5.696;2023-02-23T02:14:19;135.90;;;49.40;;
46731;SDS011;32477;51.474;5.696;2023-02-23T02:16:54;122.20;;;49.73;;
46731;SDS011;32477;51.474;5.696;2023-02-23T02:19:58;122.00;;;47.30;;
46731;SDS011;32477;51.474;5.696;2023-02-23T02:39:32;182.32;;;54.95;;
46731;SDS011;32477;51.474;5.696;2023-02-23T02:42:40;179.40;;;55.20;;
46731;SDS011;32477;51.474;5.696;2023-02-23T02:48:08;182.80;;;56.13;;
46731;SDS011;32477;51.474;5.696;2023-02-23T02:53:39;187.93;;;53.70;;
46731;SDS011;32477;51.474;5.696;2023-02-23T02:56:16;179.52;;;56.60;;
46731;SDS011;32477;51.474;5.696;2023-02-23T02:58:44;188.85;;;55.40;;
46731;SDS011;32477;51.474;5.696;2023-02-23T03:01:12;187.20;;;55.20;;
46731;SDS011;32477;51.474;5.696;2023-02-23T03:03:57;191.90;;;56.92;;
46731;SDS011;32477;51.474;5.696;2023-02-23T03:06:46;199.82;;;54.67;;
46731;SDS011;32477;51.474;5.696;2023-02-23T03:15:44;181.88;;;52.05;;
46731;SDS011;32477;51.474;5.696;2023-02-23T03:21:48;187.10;;;58.03;;
46731;SDS011;32477;51.474;5.696;2023-02-23T03:27:41;187.45;;;51.72;;
46731;SDS011;32477;51.474;5.696;2023-02-23T03:30:36;177.93;;;52.67;;
46731;SDS011;32477;51.474;5.696;2023-02-23T03:33:54;164.38;;;52.30;;
46731;SDS011;32477;51.474;5.696;2023-02-23T03:36:46;197.10;;;54.80;;
46731;SDS011;32477;51.474;5.696;2023-02-23T03:39:41;197.10;;;55.58;;
46731;SDS011;32477;51.474;5.696;2023-02-23T03:42:31;184.95;;;54.13;;
46731;SDS011;32477;51.474;5.696;2023-02-23T03:45:19;184.23;;;55.28;;
46731;SDS011;32477;51.474;5.696;2023-02-23T03:48:05;183.85;;;52.65;;
46731;SDS011;32477;51.474;5.696;2023-02-23T03:50:53;207.23;;;53.47;;
46731;SDS011;32477;51.474;5.696;2023-02-23T03:53:52;199.80;;;53.42;;
46731;SDS011;32477;51.474;5.696;2023-02-23T03:56:48;204.25;;;53.45;;
46731;SDS011;32477;51.474;5.696;2023-02-23T03:59:36;208.68;;;53.75;;
46731;SDS011;32477;51.474;5.696;2023-02-23T04:02:25;205.43;;;54.95;;
46731;SDS011;32477;51.474;5.696;2023-02-23T04:05:11;199.85;;;54.85;;
46731;SDS011;32477;51.474;5.696;2023-02-23T04:08:00;203.05;;;57.13;;
46731;SDS011;32477;51.474;5.696;2023-02-23T04:10:49;213.32;;;56.20;;
46731;SDS011;32477;51.474;5.696;2023-02-23T04:13:40;215.38;;;55.30;;
46731;SDS011;32477;51.474;5.696;2023-02-23T04:16:09;211.68;;;56.50;;
46731;SDS011;32477;51.474;5.696;2023-02-23T04:18:36;237.00;;;59.22;;
46731;SDS011;32477;51.474;5.696;2023-02-23T04:21:03;211.73;;;57.25;;
46731;SDS011;32477;51.474;5.696;2023-02-23T04:23:30;241.05;;;58.78;;
46731;SDS011;32477;51.474;5.696;2023-02-23T04:25:57;222.65;;;57.40;;
46731;SDS011;32477;51.474;5.696;2023-02-23T04:28:23;219.52;;;57.90;;
46731;SDS011;32477;51.474;5.696;2023-02-23T04:30:50;227.88;;;57.13;;
46731;SDS011;32477;51.474;5.696;2023-02-23T04:33:16;238.60;;;58.00;;
46731;SDS011;32477;51.474;5.696;2023-02-23T04:35:42;198.77;;;54.45;;
46731;SDS011;32477;51.474;5.696;2023-02-23T04:38:08;225.35;;;58.60;;
46731;SDS011;32477;51.474;5.696;2023-02-23T04:40:34;207.45;;;55.08;;
46731;SDS011;32477;51.474;5.696;2023-02-23T04:43:00;224.45;;;58.97;;
46731;SDS011;32477;51.474;5.696;2023-02-23T04:45:26;228.05;;;57.00;;
46731;SDS011;32477;51.474;5.696;2023-02-23T04:47:52;213.75;;;58.40;;
46731;SDS011;32477;51.474;5.696;2023-02-23T04:50:18;238.50;;;61.65;;
46731;SDS011;32477;51.474;5.696;2023-02-23T04:52:44;226.30;;;58.10;;
46731;SDS011;32477;51.474;5.696;2023-02-23T04:55:14;216.15;;;56.30;;
46731;SDS011;32477;51.474;5.696;2023-02-23T04:57:42;236.23;;;59.58;;
46731;SDS011;32477;51.474;5.696;2023-02-23T05:00:08;220.50;;;55.80;;
46731;SDS011;32477;51.474;5.696;2023-02-23T05:02:34;217.88;;;56.88;;
46731;SDS011;32477;51.474;5.696;2023-02-23T05:05:00;239.20;;;57.70;;
46731;SDS011;32477;51.474;5.696;2023-02-23T05:07:26;242.20;;;58.28;;
46731;SDS011;32477;51.474;5.696;2023-02-23T05:09:51;230.85;;;58.83;;
46731;SDS011;32477;51.474;5.696;2023-02-23T05:12:17;233.27;;;58.90;;
46731;SDS011;32477;51.474;5.696;2023-02-23T05:14:43;217.43;;;53.97;;
46731;SDS011;32477;51.474;5.696;2023-02-23T05:17:09;238.68;;;60.42;;
46731;SDS011;32477;51.474;5.696;2023-02-23T05:19:34;212.77;;;54.25;;
46731;SDS011;32477;51.474;5.696;2023-02-23T05:22:01;228.10;;;58.45;;
46731;SDS011;32477;51.474;5.696;2023-02-23T05:24:26;219.27;;;56.83;;
46731;SDS011;32477;51.474;5.696;2023-02-23T05:26:52;222.23;;;56.78;;
46731;SDS011;32477;51.474;5.696;2023-02-23T05:29:18;238.77;;;58.08;;
46731;SDS011;32477;51.474;5.696;2023-02-23T05:31:44;234.85;;;56.95;;
46731;SDS011;32477;51.474;5.696;2023-02-23T05:34:10;240.45;;;57.85;;
46731;SDS011;32477;51.474;5.696;2023-02-23T05:36:36;226.70;;;55.53;;
46731;SDS011;32477;51.474;5.696;2023-02-23T05:39:02;228.77;;;56.05;;
46731;SDS011;32477;51.474;5.696;2023-02-23T05:41:28;236.63;;;55.50;;
46731;SDS011;32477;51.474;5.696;2023-02-23T05:43:54;241.45;;;57.33;;
46731;SDS011;32477;51.474;5.696;2023-02-23T05:46:21;234.70;;;58.40;;
46731;SDS011;32477;51.474;5.696;2023-02-23T05:48:48;226.20;;;57.38;;
46731;SDS011;32477;51.474;5.696;2023-02-23T05:51:15;237.60;;;58.85;;
46731;SDS011;32477;51.474;5.696;2023-02-23T05:53:42;230.80;;;57.55;;
46731;SDS011;32477;51.474;5.696;2023-02-23T05:56:10;225.60;;;58.35;;
46731;SDS011;32477;51.474;5.696;2023-02-23T05:58:42;264.63;;;60.05;;
46731;SDS011;32477;51.474;5.696;2023-02-23T06:01:07;257.48;;;57.80;;
46731;SDS011;32477;51.474;5.696;2023-02-23T06:03:33;234.70;;;57.08;;
46731;SDS011;32477;51.474;5.696;2023-02-23T06:05:59;248.23;;;60.65;;
46731;SDS011;32477;51.474;5.696;2023-02-23T06:08:25;233.32;;;59.10;;
46731;SDS011;32477;51.474;5.696;2023-02-23T06:10:51;261.90;;;59.53;;
46731;SDS011;32477;51.474;5.696;2023-02-23T06:13:17;228.95;;;57.10;;
46731;SDS011;32477;51.474;5.696;2023-02-23T06:15:43;246.95;;;57.33;;
46731;SDS011;32477;51.474;5.696;2023-02-23T06:18:08;236.73;;;57.50;;
46731;SDS011;32477;51.474;5.696;2023-02-23T06:20:35;249.90;;;57.55;;
46731;SDS011;32477;51.474;5.696;2023-02-23T06:23:01;240.52;;;59.80;;
46731;SDS011;32477;51.474;5.696;2023-02-23T06:25:27;247.93;;;55.90;;
46731;SDS011;32477;51.474;5.696;2023-02-23T06:27:53;223.20;;;54.95;;
46731;SDS011;32477;51.474;5.696;2023-02-23T06:30:19;250.32;;;57.13;;
46731;SDS011;32477;51.474;5.696;2023-02-23T06:32:45;235.02;;;56.08;;
46731;SDS011;32477;51.474;5.696;2023-02-23T06:35:11;218.13;;;54.65;;
46731;SDS011;32477;51.474;5.696;2023-02-23T06:37:37;233.30;;;51.75;;
46731;SDS011;32477;51.474;5.696;2023-02-23T06:40:03;227.75;;;53.13;;
46731;SDS011;32477;51.474;5.696;2023-02-23T06:42:29;251.50;;;56.05;;
46731;SDS011;32477;51.474;5.696;2023-02-23T06:44:55;219.85;;;53.10;;
46731;SDS011;32477;51.474;5.696;2023-02-23T06:47:21;226.55;;;53.63;;
46731;SDS011;32477;51.474;5.696;2023-02-23T06:49:46;242.32;;;55.20;;
46731;SDS011;32477;51.474;5.696;2023-02-23T06:52:12;224.32;;;53.42;;
46731;SDS011;32477;51.474;5.696;2023-02-23T06:54:40;244.93;;;54.28;;
46731;SDS011;32477;51.474;5.696;2023-02-23T06:57:09;232.32;;;55.25;;
46731;SDS011;32477;51.474;5.696;2023-02-23T06:59:35;237.27;;;55.95;;
46731;SDS011;32477;51.474;5.696;2023-02-23T07:02:01;258.40;;;55.80;;
46731;SDS011;32477;51.474;5.696;2023-02-23T07:04:29;225.48;;;54.58;;
46731;SDS011;32477;51.474;5.696;2023-02-23T07:06:55;226.40;;;53.05;;
46731;SDS011;32477;51.474;5.696;2023-02-23T07:09:21;224.38;;;52.53;;
46731;SDS011;32477;51.474;5.696;2023-02-23T07:11:47;230.65;;;52.90;;
46731;SDS011;32477;51.474;5.696;2023-02-23T07:14:13;217.90;;;51.60;;
46731;SDS011;32477;51.474;5.696;2023-02-23T07:16:38;229.02;;;51.75;;
46731;SDS011;32477;51.474;5.696;2023-02-23T07:19:04;227.68;;;52.53;;
46731;SDS011;32477;51.474;5.696;2023-02-23T07:21:30;220.50;;;52.22;;
46731;SDS011;32477;51.474;5.696;2023-02-23T07:23:57;227.63;;;51.67;;
46731;SDS011;32477;51.474;5.696;2023-02-23T07:26:23;214.10;;;48.72;;
46731;SDS011;32477;51.474;5.696;2023-02-23T07:28:48;224.98;;;51.33;;
46731;SDS011;32477;51.474;5.696;2023-02-23T07:31:14;214.13;;;50.08;;
46731;SDS011;32477;51.474;5.696;2023-02-23T07:33:40;215.35;;;51.90;;
46731;SDS011;32477;51.474;5.696;2023-02-23T07:36:06;221.55;;;51.40;;
46731;SDS011;32477;51.474;5.696;2023-02-23T07:38:32;219.63;;;50.10;;
46731;SDS011;32477;51.474;5.696;2023-02-23T07:40:58;216.20;;;49.95;;
46731;SDS011;32477;51.474;5.696;2023-02-23T07:43:24;205.75;;;48.92;;
46731;SDS011;32477;51.474;5.696;2023-02-23T07:45:50;192.48;;;46.78;;
46731;SDS011;32477;51.474;5.696;2023-02-23T07:48:16;198.40;;;47.08;;
46731;SDS011;32477;51.474;5.696;2023-02-23T07:50:42;204.45;;;49.38;;
46731;SDS011;32477;51.474;5.696;2023-02-23T07:53:08;190.23;;;47.42;;
46731;SDS011;32477;51.474;5.696;2023-02-23T07:55:35;189.10;;;45.17;;
46731;SDS011;32477;51.474;5.696;2023-02-23T07:58:02;188.82;;;47.80;;
46731;SDS011;32477;51.474;5.696;2023-02-23T08:00:29;191.20;;;47.72;;
46731;SDS011;32477;51.474;5.696;2023-02-23T08:02:56;177.65;;;44.08;;
46731;SDS011;32477;51.474;5.696;2023-02-23T08:05:22;167.35;;;45.40;;
46731;SDS011;32477;51.474;5.696;2023-02-23T08:07:49;177.88;;;47.42;;
46731;SDS011;32477;51.474;5.696;2023-02-23T08:10:15;176.05;;;45.30;;
46731;SDS011;32477;51.474;5.696;2023-02-23T08:12:41;164.65;;;44.22;;
46731;SDS011;32477;51.474;5.696;2023-02-23T08:15:07;174.27;;;47.00;;
46731;SDS011;32477;51.474;5.696;2023-02-23T08:17:34;168.57;;;45.10;;
46731;SDS011;32477;51.474;5.696;2023-02-23T08:20:01;170.60;;;42.55;;
46731;SDS011;32477;51.474;5.696;2023-02-23T08:22:27;160.82;;;44.92;;
46731;SDS011;32477;51.474;5.696;2023-02-23T08:24:53;141.38;;;41.83;;
46731;SDS011;32477;51.474;5.696;2023-02-23T08:27:18;162.98;;;41.85;;
46731;SDS011;32477;51.474;5.696;2023-02-23T08:29:44;161.70;;;42.38;;
46731;SDS011;32477;51.474;5.696;2023-02-23T08:32:10;158.18;;;42.78;;
46731;SDS011;32477;51.474;5.696;2023-02-23T08:34:38;154.18;;;43.35;;
46731;SDS011;32477;51.474;5.696;2023-02-23T08:37:06;160.95;;;42.20;;
46731;SDS011;32477;51.474;5.696;2023-02-23T08:39:31;151.07;;;40.45;;
46731;SDS011;32477;51.474;5.696;2023-02-23T08:41:57;140.90;;;41.47;;
46731;SDS011;32477;51.474;5.696;2023-02-23T08:44:23;136.45;;;39.10;;
46731;SDS011;32477;51.474;5.696;2023-02-23T08:46:49;142.80;;;40.45;;
46731;SDS011;32477;51.474;5.696;2023-02-23T08:49:15;117.20;;;39.05;;
46731;SDS011;32477;51.474;5.696;2023-02-23T08:51:40;134.23;;;37.88;;
46731;SDS011;32477;51.474;5.696;2023-02-23T08:54:06;130.80;;;40.95;;
46731;SDS011;32477;51.474;5.696;2023-02-23T08:56:38;125.93;;;37.78;;
46731;SDS011;32477;51.474;5.696;2023-02-23T08:59:04;116.75;;;36.20;;
46731;SDS011;32477;51.474;5.696;2023-02-23T09:01:29;118.25;;;34.55;;
46731;SDS011;32477;51.474;5.696;2023-02-23T09:03:55;108.22;;;33.40;;
46731;SDS011;32477;51.474;5.696;2023-02-23T09:06:22;119.30;;;34.60;;
46731;SDS011;32477;51.474;5.696;2023-02-23T09:08:49;110.18;;;33.92;;
46731;SDS011;32477;51.474;5.696;2023-02-23T09:11:16;106.47;;;32.75;;
46731;SDS011;32477;51.474;5.696;2023-02-23T09:13:41;103.70;;;33.75;;
46731;SDS011;32477;51.474;5.696;2023-02-23T09:16:08;108.00;;;34.65;;
46731;SDS011;32477;51.474;5.696;2023-02-23T09:18:34;95.90;;;32.15;;
46731;SDS011;32477;51.474;5.696;2023-02-23T09:21:01;107.15;;;34.30;;
46731;SDS011;32477;51.474;5.696;2023-02-23T09:23:30;101.75;;;34.03;;
46731;SDS011;32477;51.474;5.696;2023-02-23T09:25:56;102.28;;;32.97;;
46731;SDS011;32477;51.474;5.696;2023-02-23T09:28:26;97.72;;;32.03;;
46731;SDS011;32477;51.474;5.696;2023-02-23T09:30:54;85.25;;;30.75;;
46731;SDS011;32477;51.474;5.696;2023-02-23T09:33:20;93.82;;;32.60;;
46731;SDS011;32477;51.474;5.696;2023-02-23T09:35:46;100.07;;;35.20;;
46731;SDS011;32477;51.474;5.696;2023-02-23T09:38:11;88.43;;;33.50;;
46731;SDS011;32477;51.474;5.696;2023-02-23T09:40:44;99.07;;;33.25;;
46731;SDS011;32477;51.474;5.696;2023-02-23T09:43:21;91.65;;;32.42;;
46731;SDS011;32477;51.474;5.696;2023-02-23T09:49:01;85.47;;;31.13;;
46731;SDS011;32477;51.474;5.696;2023-02-23T09:51:30;73.50;;;28.25;;
46731;SDS011;32477;51.474;5.696;2023-02-23T09:54:04;80.43;;;28.95;;
46731;SDS011;32477;51.474;5.696;2023-02-23T09:56:36;79.80;;;31.27;;
46731;SDS011;32477;51.474;5.696;2023-02-23T09:59:10;79.18;;;29.75;;
46731;SDS011;32477;51.474;5.696;2023-02-23T10:01:44;70.32;;;27.15;;
46731;SDS011;32477;51.474;5.696;2023-02-23T10:07:25;75.28;;;27.63;;
46731;SDS011;32477;51.474;5.696;2023-02-23T10:15:40;62.80;;;25.73;;
46731;SDS011;32477;51.474;5.696;2023-02-23T10:20:52;58.75;;;24.70;;
46731;SDS011;32477;51.474;5.696;2023-02-23T10:23:40;63.25;;;24.73;;
46731;SDS011;32477;51.474;5.696;2023-02-23T10:26:19;66.38;;;25.23;;
46731;SDS011;32477;51.474;5.696;2023-02-23T10:28:47;58.55;;;24.50;;
46731;SDS011;32477;51.474;5.696;2023-02-23T10:31:27;59.53;;;24.42;;
46731;SDS011;32477;51.474;5.696;2023-02-23T10:34:12;55.00;;;24.02;;
46731;SDS011;32477;51.474;5.696;2023-02-23T10:36:43;51.13;;;22.38;;
46731;SDS011;32477;51.474;5.696;2023-02-23T10:39:15;50.38;;;22.33;;
46731;SDS011;32477;51.474;5.696;2023-02-23T10:41:41;45.97;;;21.60;;
46731;SDS011;32477;51.474;5.696;2023-02-23T10:44:21;47.08;;;20.73;;
46731;SDS011;32477;51.474;5.696;2023-02-23T10:46:50;46.25;;;20.63;;
46731;SDS011;32477;51.474;5.696;2023-02-23T10:49:22;49.55;;;21.67;;
46731;SDS011;32477;51.474;5.696;2023-02-23T10:51:54;54.85;;;21.13;;
46731;SDS011;32477;51.474;5.696;2023-02-23T10:54:33;54.85;;;23.90;;
46731;SDS011;32477;51.474;5.696;2023-02-23T10:56:59;55.88;;;23.23;;
46731;SDS011;32477;51.474;5.696;2023-02-23T10:59:25;61.00;;;23.92;;
46731;SDS011;32477;51.474;5.696;2023-02-23T11:01:52;58.08;;;24.40;;
46731;SDS011;32477;51.474;5.696;2023-02-23T11:04:22;66.50;;;27.42;;
46731;SDS011;32477;51.474;5.696;2023-02-23T11:07:07;58.20;;;26.45;;
46731;SDS011;32477;51.474;5.696;2023-02-23T11:09:36;64.60;;;26.52;;
46731;SDS011;32477;51.474;5.696;2023-02-23T11:14:40;68.03;;;29.23;;
46731;SDS011;32477;51.474;5.696;2023-02-23T11:17:09;65.78;;;29.48;;
46731;SDS011;32477;51.474;5.696;2023-02-23T11:19:51;79.13;;;35.45;;
46731;SDS011;32477;51.474;5.696;2023-02-23T11:22:40;140.45;;;62.63;;
46731;SDS011;32477;51.474;5.696;2023-02-23T11:25:13;116.43;;;48.33;;
46731;SDS011;32477;51.474;5.696;2023-02-23T11:27:48;82.75;;;38.03;;
46731;SDS011;32477;51.474;5.696;2023-02-23T11:30:20;75.07;;;34.50;;
46731;SDS011;32477;51.474;5.696;2023-02-23T11:32:53;75.13;;;34.17;;
46731;SDS011;32477;51.474;5.696;2023-02-23T11:35:33;73.88;;;33.40;;
46731;SDS011;32477;51.474;5.696;2023-02-23T11:37:59;74.05;;;33.85;;
46731;SDS011;32477;51.474;5.696;2023-02-23T11:40:59;71.40;;;33.55;;
46731;SDS011;32477;51.474;5.696;2023-02-23T11:43:26;80.43;;;33.58;;
46731;SDS011;32477;51.474;5.696;2023-02-23T11:45:53;81.18;;;37.05;;
46731;SDS011;32477;51.474;5.696;2023-02-23T11:48:31;88.47;;;35.75;;
46731;SDS011;32477;51.474;5.696;2023-02-23T11:50:58;77.47;;;34.22;;
46731;SDS011;32477;51.474;5.696;2023-02-23T11:53:38;77.60;;;34.15;;
46731;SDS011;32477;51.474;5.696;2023-02-23T11:56:08;72.47;;;34.08;;
46731;SDS011;32477;51.474;5.696;2023-02-23T11:58:37;81.80;;;37.53;;
46731;SDS011;32477;51.474;5.696;2023-02-23T12:01:10;79.82;;;35.30;;
46731;SDS011;32477;51.474;5.696;2023-02-23T12:03:48;69.38;;;33.45;;
46731;SDS011;32477;51.474;5.696;2023-02-23T12:06:25;81.85;;;33.75;;
46731;SDS011;32477;51.474;5.696;2023-02-23T12:08:54;70.45;;;32.25;;
46731;SDS011;32477;51.474;5.696;2023-02-23T12:11:26;74.55;;;34.22;;
46731;SDS011;32477;51.474;5.696;2023-02-23T12:14:02;73.60;;;33.20;;
46731;SDS011;32477;51.474;5.696;2023-02-23T12:16:47;65.95;;;32.03;;
46731;SDS011;32477;51.474;5.696;2023-02-23T12:22:10;72.18;;;31.30;;
46731;SDS011;32477;51.474;5.696;2023-02-23T12:27:20;73.40;;;33.63;;
46731;SDS011;32477;51.474;5.696;2023-02-23T12:30:04;83.60;;;33.50;;
46731;SDS011;32477;51.474;5.696;2023-02-23T12:32:41;80.30;;;34.20;;
46731;SDS011;32477;51.474;5.696;2023-02-23T12:41:00;70.97;;;31.20;;
46731;SDS011;32477;51.474;5.696;2023-02-23T12:43:49;69.88;;;30.77;;
46731;SDS011;32477;51.474;5.696;2023-02-23T12:46:21;75.53;;;33.35;;
46731;SDS011;32477;51.474;5.696;2023-02-23T12:49:00;69.65;;;31.27;;
46731;SDS011;32477;51.474;5.696;2023-02-23T12:51:29;76.32;;;32.75;;
46731;SDS011;32477;51.474;5.696;2023-02-23T12:54:02;67.57;;;31.60;;
46731;SDS011;32477;51.474;5.696;2023-02-23T13:02:19;65.90;;;29.73;;
46731;SDS011;32477;51.474;5.696;2023-02-23T13:04:49;58.05;;;26.92;;
46731;SDS011;32477;51.474;5.696;2023-02-23T13:10:54;65.85;;;30.70;;
46731;SDS011;32477;51.474;5.696;2023-02-23T13:16:22;67.55;;;28.08;;
46731;SDS011;32477;51.474;5.696;2023-02-23T13:24:22;54.20;;;26.15;;
46731;SDS011;32477;51.474;5.696;2023-02-23T13:29:27;50.65;;;23.60;;
46731;SDS011;32477;51.474;5.696;2023-02-23T13:31:55;57.22;;;26.60;;
46731;SDS011;32477;51.474;5.696;2023-02-23T13:34:25;53.67;;;25.33;;
46731;SDS011;32477;51.474;5.696;2023-02-23T13:36:53;61.22;;;27.20;;
46731;SDS011;32477;51.474;5.696;2023-02-23T13:49:56;39.92;;;19.30;;
46731;SDS011;32477;51.474;5.696;2023-02-23T13:52:40;46.85;;;21.23;;
46731;SDS011;32477;51.474;5.696;2023-02-23T13:57:53;37.70;;;19.85;;
46731;SDS011;32477;51.474;5.696;2023-02-23T14:00:26;42.10;;;19.05;;
46731;SDS011;32477;51.474;5.696;2023-02-23T14:02:53;40.70;;;19.30;;
46731;SDS011;32477;51.474;5.696;2023-02-23T14:05:26;39.30;;;18.45;;
46731;SDS011;32477;51.474;5.696;2023-02-23T14:07:53;36.03;;;17.98;;
46731;SDS011;32477;51.474;5.696;2023-02-23T14:10:35;32.28;;;16.10;;
46731;SDS011;32477;51.474;5.696;2023-02-23T14:20:54;31.05;;;15.05;;
46731;SDS011;32477;51.474;5.696;2023-02-23T14:23:48;27.77;;;14.80;;
46731;SDS011;32477;51.474;5.696;2023-02-23T14:39:43;24.10;;;11.77;;
46731;SDS011;32477;51.474;5.696;2023-02-23T14:42:13;19.33;;;10.52;;
46731;SDS011;32477;51.474;5.696;2023-02-23T14:44:49;25.42;;;10.57;;
46731;SDS011;32477;51.474;5.696;2023-02-23T14:47:22;19.73;;;10.65;;
46731;SDS011;32477;51.474;5.696;2023-02-23T14:49:58;19.00;;;9.50;;
46731;SDS011;32477;51.474;5.696;2023-02-23T14:55:15;20.10;;;9.25;;
46731;SDS011;32477;51.474;5.696;2023-02-23T14:57:41;20.02;;;10.52;;
46731;SDS011;32477;51.474;5.696;2023-02-23T15:02:59;19.52;;;10.18;;
46731;SDS011;32477;51.474;5.696;2023-02-23T15:05:28;22.75;;;10.50;;
46731;SDS011;32477;51.474;5.696;2023-02-23T15:07:56;17.83;;;10.32;;
46731;SDS011;32477;51.474;5.696;2023-02-23T15:10:32;20.42;;;10.98;;
46731;SDS011;32477;51.474;5.696;2023-02-23T15:13:00;20.42;;;11.55;;
46731;SDS011;32477;51.474;5.696;2023-02-23T15:15:34;21.30;;;11.45;;
46731;SDS011;32477;51.474;5.696;2023-02-23T15:18:00;29.70;;;14.10;;
46731;SDS011;32477;51.474;5.696;2023-02-23T15:20:31;41.38;;;15.77;;
46731;SDS011;32477;51.474;5.696;2023-02-23T15:23:02;29.67;;;14.57;;
46731;SDS011;32477;51.474;5.696;2023-02-23T15:25:34;26.55;;;14.32;;
46731;SDS011;32477;51.474;5.696;2023-02-23T15:28:24;27.75;;;13.30;;
46731;SDS011;32477;51.474;5.696;2023-02-23T15:30:50;30.55;;;13.77;;
46731;SDS011;32477;51.474;5.696;2023-02-23T15:33:18;26.60;;;11.63;;
46731;SDS011;32477;51.474;5.696;2023-02-23T15:36:15;31.25;;;13.18;;
46731;SDS011;32477;51.474;5.696;2023-02-23T15:38:48;24.48;;;12.23;;
46731;SDS011;32477;51.474;5.696;2023-02-23T15:41:27;24.00;;;12.25;;
46731;SDS011;32477;51.474;5.696;2023-02-23T15:46:34;28.48;;;13.00;;
46731;SDS011;32477;51.474;5.696;2023-02-23T15:49:01;22.50;;;11.63;;
46731;SDS011;32477;51.474;5.696;2023-02-23T15:51:42;21.45;;;11.10;;
46731;SDS011;32477;51.474;5.696;2023-02-23T15:56:41;27.00;;;12.88;;
46731;SDS011;32477;51.474;5.696;2023-02-23T15:59:13;27.02;;;11.02;;
46731;SDS011;32477;51.474;5.696;2023-02-23T16:01:46;26.67;;;11.80;;
46731;SDS011;32477;51.474;5.696;2023-02-23T16:06:38;26.20;;;11.32;;
46731;SDS011;32477;51.474;5.696;2023-02-23T16:11:53;23.42;;;10.77;;
46731;SDS011;32477;51.474;5.696;2023-02-23T16:14:20;24.65;;;11.02;;
46731;SDS011;32477;51.474;5.696;2023-02-23T16:16:48;26.10;;;11.48;;
46731;SDS011;32477;51.474;5.696;2023-02-23T16:19:16;21.35;;;9.60;;
46731;SDS011;32477;51.474;5.696;2023-02-23T16:21:47;20.63;;;10.43;;
46731;SDS011;32477;51.474;5.696;2023-02-23T16:24:18;26.02;;;11.10;;
46731;SDS011;32477;51.474;5.696;2023-02-23T16:26:53;23.73;;;10.35;;
46731;SDS011;32477;51.474;5.696;2023-02-23T16:29:35;15.98;;;8.05;;
46731;SDS011;32477;51.474;5.696;2023-02-23T16:32:16;17.83;;;8.88;;
46731;SDS011;32477;51.474;5.696;2023-02-23T16:34:50;18.30;;;9.45;;
46731;SDS011;32477;51.474;5.696;2023-02-23T16:37:22;24.50;;;10.48;;
46731;SDS011;32477;51.474;5.696;2023-02-23T16:39:52;27.70;;;9.15;;
46731;SDS011;32477;51.474;5.696;2023-02-23T16:42:22;27.08;;;9.27;;
46731;SDS011;32477;51.474;5.696;2023-02-23T16:44:52;20.13;;;8.63;;
46731;SDS011;32477;51.474;5.696;2023-02-23T16:49:47;18.63;;;8.50;;
46731;SDS011;32477;51.474;5.696;2023-02-23T16:52:17;20.65;;;8.98;;